createdAt,value
2023-05-19T00:01:15.138Z,101009.56
2023-05-19T00:03:57.660Z,101007.97
2023-05-19T00:06:31.604Z,101002.69
2023-05-19T00:09:02.790Z,100998.81
2023-05-19T00:11:29.725Z,100996.38
2023-05-19T00:13:58.563Z,101003.22
2023-05-19T00:16:27.474Z,101005.63
2023-05-19T00:18:54.385Z,101005.09
2023-05-19T00:21:21.064Z,101003.31
2023-05-19T00:23:47.935Z,101000.72
2023-05-19T00:26:14.986Z,101002.69
2023-05-19T00:28:51.116Z,100998.31
2023-05-19T00:31:17.833Z,100994.16
2023-05-19T00:33:44.908Z,101011.72
2023-05-19T00:36:11.792Z,101003.09
2023-05-19T00:38:39.170Z,101009.94
2023-05-19T00:41:06.784Z,101018.16
2023-05-19T00:43:36.405Z,101005.25
2023-05-19T00:46:03.169Z,101003.38
2023-05-19T00:48:30.156Z,101008.31
2023-05-19T00:51:02.102Z,101008.31
2023-05-19T00:53:29.769Z,101003.69
2023-05-19T00:55:56.794Z,101000.28
2023-05-19T00:58:25.765Z,100998.66
2023-05-19T01:00:52.891Z,101000.41
2023-05-19T01:05:53.523Z,100995.44
2023-05-19T01:08:20.467Z,100993.00
2023-05-19T01:10:47.178Z,100991.91
2023-05-19T01:13:14.305Z,100986.59
2023-05-19T01:16:07.864Z,100986.06
2023-05-19T01:19:05.050Z,100991.91
2023-05-19T01:22:22.779Z,100981.81
2023-05-19T01:26:00.758Z,100982.97
2023-05-19T01:29:29.331Z,100976.94
2023-05-19T01:32:19.635Z,100970.75
2023-05-19T01:34:48.914Z,100979.50
2023-05-19T01:37:17.215Z,100972.59
2023-05-19T01:39:46.502Z,100978.63
2023-05-19T01:42:15.104Z,100980.34
2023-05-19T01:44:42.305Z,100979.72
2023-05-19T01:47:09.960Z,100982.19
2023-05-19T01:49:36.581Z,100979.81
2023-05-19T01:52:04.153Z,100977.19
2023-05-19T01:54:31.006Z,100976.16
2023-05-19T01:57:21.127Z,100983.22
2023-05-19T02:00:05.491Z,100988.63
2023-05-19T02:03:01.292Z,100985.06
2023-05-19T02:05:53.594Z,100991.28
2023-05-19T02:08:43.604Z,100987.16
2023-05-19T02:11:37.871Z,100992.41
2023-05-19T02:14:25.835Z,100998.72
2023-05-19T02:16:52.741Z,100994.53
2023-05-19T02:19:28.055Z,100990.25
2023-05-19T02:21:56.380Z,100998.06
2023-05-19T02:24:23.417Z,100991.28
2023-05-19T02:26:51.825Z,100997.53
2023-05-19T02:29:19.253Z,100996.72
2023-05-19T02:31:46.095Z,100993.38
2023-05-19T02:34:12.915Z,100996.91
2023-05-19T02:36:41.420Z,100993.38
2023-05-19T02:39:09.723Z,100997.94
2023-05-19T02:41:36.590Z,100993.75
2023-05-19T02:44:03.671Z,101001.78
2023-05-19T02:46:30.975Z,100989.03
2023-05-19T02:48:58.207Z,100989.16
2023-05-19T02:51:24.865Z,100988.41
2023-05-19T02:53:51.423Z,100991.91
2023-05-19T02:56:17.933Z,100988.50
2023-05-19T02:58:44.747Z,100989.31
2023-05-19T03:01:11.392Z,100989.59
2023-05-19T03:03:38.429Z,100988.66
2023-05-19T03:06:08.798Z,100987.97
2023-05-19T03:08:36.517Z,100989.63
2023-05-19T03:11:03.517Z,100994.03
2023-05-19T03:13:30.407Z,100996.78
2023-05-19T03:15:58.663Z,100986.25
2023-05-19T03:18:28.667Z,100981.34
2023-05-19T03:20:55.161Z,100980.28
2023-05-19T03:23:22.469Z,100985.81
2023-05-19T03:25:49.112Z,100989.31
2023-05-19T03:28:15.833Z,100980.75
2023-05-19T03:30:42.643Z,100983.31
2023-05-19T03:33:17.357Z,100982.47
2023-05-19T03:35:44.720Z,100988.59
2023-05-19T03:38:11.840Z,100993.94
2023-05-19T03:40:41.268Z,100984.56
2023-05-19T03:43:10.816Z,100987.00
2023-05-19T03:45:44.585Z,100985.22
2023-05-19T03:48:31.261Z,100984.34
2023-05-19T03:51:30.035Z,100993.03
2023-05-19T03:54:04.486Z,100998.03
2023-05-19T03:56:31.162Z,100995.44
2023-05-19T03:58:57.815Z,100997.25
2023-05-19T04:01:24.369Z,100999.00
2023-05-19T04:03:51.031Z,100999.00
2023-05-19T04:06:19.142Z,100998.91
2023-05-19T04:08:45.961Z,101000.59
2023-05-19T04:11:12.857Z,101002.44
2023-05-19T04:13:39.488Z,101000.59
2023-05-19T04:16:07.068Z,100997.88
2023-05-19T04:18:33.769Z,100997.00
2023-05-19T04:21:00.315Z,101008.13
2023-05-19T04:23:27.085Z,101008.13
2023-05-19T04:25:55.054Z,101012.56
2023-05-19T04:28:21.783Z,101011.63
2023-05-19T04:30:48.367Z,101016.81
2023-05-19T04:33:15.077Z,101020.53
2023-05-19T04:35:43.729Z,101021.91
2023-05-19T04:38:12.083Z,101025.28
2023-05-19T04:40:40.335Z,101022.75
2023-05-19T04:43:09.532Z,101026.19
2023-05-19T04:45:37.557Z,101027.97
2023-05-19T04:48:05.152Z,101030.47
2023-05-19T04:50:32.766Z,101027.06
2023-05-19T04:53:00.173Z,101026.22
2023-05-19T04:55:27.215Z,101021.91
2023-05-19T04:57:53.773Z,101029.56
2023-05-19T05:00:21.492Z,101029.56
2023-05-19T05:02:57.857Z,101030.31
2023-05-19T05:05:26.580Z,101033.94
2023-05-19T05:07:54.071Z,101034.50
2023-05-19T05:10:22.212Z,101037.53
2023-05-19T05:12:49.620Z,101033.13
2023-05-19T05:15:16.612Z,101038.94
2023-05-19T05:17:45.172Z,101034.50
2023-05-19T05:20:12.768Z,101036.94
2023-05-19T05:22:39.867Z,101028.78
2023-05-19T05:25:08.476Z,101034.50
2023-05-19T05:27:36.525Z,101042.13
2023-05-19T05:30:05.574Z,101030.88
2023-05-19T05:32:32.349Z,101033.09
2023-05-19T05:35:00.513Z,101039.84
2023-05-19T05:37:27.145Z,101039.53
2023-05-19T05:39:53.720Z,101038.59
2023-05-19T05:42:20.446Z,101041.13
2023-05-19T05:44:48.017Z,101035.63
2023-05-19T05:47:15.581Z,101028.34
2023-05-19T05:49:43.780Z,101029.13
2023-05-19T05:52:12.353Z,101030.69
2023-05-19T05:54:44.633Z,101023.66
2023-05-19T05:57:12.241Z,101023.28
2023-05-19T05:59:40.579Z,101031.19
2023-05-19T06:02:08.461Z,101028.25
2023-05-19T06:04:37.488Z,101013.03
2023-05-19T06:07:05.468Z,101014.66
2023-05-19T06:09:35.853Z,101007.41
2023-05-19T06:12:03.805Z,101016.41
2023-05-19T06:14:35.536Z,101010.66
2023-05-19T06:17:14.100Z,101009.56
2023-05-19T06:19:40.983Z,101008.31
2023-05-19T06:22:07.555Z,101011.44
2023-05-19T06:24:34.185Z,101015.44
2023-05-19T06:27:01.400Z,101015.13
2023-05-19T06:29:27.969Z,101015.53
2023-05-19T06:31:57.132Z,101012.78
2023-05-19T06:34:24.529Z,101011.78
2023-05-19T06:36:51.165Z,101015.38
2023-05-19T06:39:19.560Z,101006.97
2023-05-19T06:41:46.067Z,101009.22
2023-05-19T06:44:25.191Z,101014.16
2023-05-19T06:46:51.786Z,101020.19
2023-05-19T06:49:19.992Z,101008.91
2023-05-19T06:51:47.951Z,101010.44
2023-05-19T06:54:16.068Z,101007.91
2023-05-19T06:56:42.899Z,101012.31
2023-05-19T06:59:10.351Z,101003.91
2023-05-19T07:01:38.062Z,101003.38
2023-05-19T07:04:04.868Z,101002.91
2023-05-19T07:06:31.616Z,101001.19
2023-05-19T07:08:58.325Z,101007.59
2023-05-19T07:11:26.388Z,101001.63
2023-05-19T07:13:53.295Z,100995.13
2023-05-19T07:16:25.884Z,100993.81
2023-05-19T07:18:52.617Z,100997.63
2023-05-19T07:21:19.331Z,100993.28
2023-05-19T07:23:46.863Z,100980.59
2023-05-19T07:26:13.548Z,100983.59
2023-05-19T07:28:41.725Z,100982.34
2023-05-19T07:31:09.761Z,100980.38
2023-05-19T07:33:36.273Z,100971.91
2023-05-19T07:36:03.108Z,100971.84
2023-05-19T07:38:31.432Z,100964.91
2023-05-19T07:40:58.113Z,100955.09
2023-05-19T07:43:24.792Z,100954.22
2023-05-19T07:45:51.472Z,100955.44
2023-05-19T07:48:18.767Z,100960.84
2023-05-19T07:50:45.462Z,100948.78
2023-05-19T07:53:12.081Z,100954.31
2023-05-19T07:55:38.598Z,100953.31
2023-05-19T07:58:05.486Z,100955.22
2023-05-19T08:00:32.454Z,100945.84
2023-05-19T08:03:00.120Z,100954.94
2023-05-19T08:05:26.974Z,100954.19
2023-05-19T08:07:53.458Z,100942.59
2023-05-19T08:10:19.966Z,100947.28
2023-05-19T08:12:46.681Z,100947.53
2023-05-19T08:15:13.225Z,100936.13
2023-05-19T08:17:39.914Z,100943.00
2023-05-19T08:20:08.717Z,100948.78
2023-05-19T08:22:36.145Z,100943.03
2023-05-19T08:25:05.493Z,100935.53
2023-05-19T08:27:32.968Z,100937.97
2023-05-19T08:29:59.728Z,100941.19
2023-05-19T08:32:26.509Z,100936.66
2023-05-19T08:34:53.106Z,100932.97
2023-05-19T08:37:19.809Z,100939.31
2023-05-19T08:39:46.297Z,100941.56
2023-05-19T08:42:12.904Z,100930.25
2023-05-19T08:44:40.064Z,100933.59
2023-05-19T08:47:12.688Z,100933.88
2023-05-19T08:49:46.914Z,100928.66
2023-05-19T08:52:25.148Z,100925.34
2023-05-19T08:55:09.464Z,100924.97
2023-05-19T08:57:38.176Z,100922.03
2023-05-19T09:00:12.302Z,100914.22
2023-05-19T09:02:50.382Z,100913.34
2023-05-19T09:05:26.597Z,100902.34
2023-05-19T09:07:53.277Z,100899.97
2023-05-19T09:10:19.843Z,100898.00
2023-05-19T09:12:47.678Z,100888.72
2023-05-19T09:15:18.639Z,100908.81
2023-05-19T09:17:48.003Z,100906.88
2023-05-19T09:20:16.687Z,100905.81
2023-05-19T09:22:47.549Z,100914.97
2023-05-19T09:25:24.035Z,100907.44
2023-05-19T09:27:51.254Z,100901.56
2023-05-19T09:30:18.468Z,100889.97
2023-05-19T09:32:47.166Z,100894.31
2023-05-19T09:35:14.019Z,100895.91
2023-05-19T09:37:41.362Z,100886.28
2023-05-19T09:40:12.976Z,100882.13
2023-05-19T09:42:40.874Z,100889.28
2023-05-19T09:45:11.582Z,100874.63
2023-05-19T09:47:40.321Z,100878.03
2023-05-19T09:50:11.778Z,100885.75
2023-05-19T09:52:39.654Z,100876.41
2023-05-19T09:55:10.163Z,100879.16
2023-05-19T09:57:37.763Z,100875.34
2023-05-19T10:00:14.275Z,100870.31
2023-05-19T10:02:45.491Z,100874.28
2023-05-19T10:05:17.341Z,100875.22
2023-05-19T10:07:45.784Z,100865.84
2023-05-19T10:10:13.958Z,100862.00
2023-05-19T10:12:41.685Z,100856.00
2023-05-19T10:15:13.442Z,100858.63
2023-05-19T10:17:41.570Z,100857.72
2023-05-19T10:20:17.996Z,100866.00
2023-05-19T10:22:46.653Z,100853.31
2023-05-19T10:25:15.223Z,100853.97
2023-05-19T10:27:46.513Z,100849.66
2023-05-19T10:30:18.830Z,100853.75
2023-05-19T10:32:48.545Z,100844.94
2023-05-19T10:35:52.678Z,100839.78
2023-05-19T10:38:43.038Z,100829.09
2023-05-19T10:41:29.840Z,100827.34
2023-05-19T10:44:05.374Z,100830.44
2023-05-19T10:46:32.196Z,100840.66
2023-05-19T10:48:59.377Z,100833.44
2023-05-19T10:51:31.840Z,100843.69
2023-05-19T10:53:58.938Z,100834.59
2023-05-19T10:56:33.749Z,100844.53
2023-05-19T10:59:01.596Z,100843.72
2023-05-19T11:01:33.673Z,100836.19
2023-05-19T11:04:09.360Z,100832.25
2023-05-19T11:06:36.750Z,100825.84
2023-05-19T11:09:11.649Z,100834.00
2023-05-19T11:11:54.354Z,100827.75
2023-05-19T11:14:26.797Z,100818.22
2023-05-19T11:16:57.118Z,100814.81
2023-05-19T11:19:35.460Z,100822.31
2023-05-19T11:22:09.929Z,100817.19
2023-05-19T11:24:50.562Z,100811.44
2023-05-19T11:27:17.737Z,100825.13
2023-05-19T11:29:44.604Z,100808.63
2023-05-19T11:32:11.514Z,100812.75
2023-05-19T11:34:38.431Z,100809.19
2023-05-19T11:37:06.477Z,100808.84
2023-05-19T11:39:33.231Z,100805.59
2023-05-19T11:41:59.779Z,100807.31
2023-05-19T11:44:26.252Z,100809.25
2023-05-19T11:46:53.179Z,100803.72
2023-05-19T11:49:19.932Z,100800.06
2023-05-19T11:51:46.619Z,100795.09
2023-05-19T11:54:13.491Z,100790.31
2023-05-19T11:56:41.597Z,100786.00
2023-05-19T11:59:09.136Z,100785.81
2023-05-19T12:01:36.193Z,100791.59
2023-05-19T12:04:03.374Z,100786.13
2023-05-19T12:06:30.122Z,100798.22
2023-05-19T12:08:57.098Z,100787.63
2023-05-19T12:11:24.224Z,100790.41
2023-05-19T12:13:54.536Z,100792.03
2023-05-19T12:16:21.263Z,100794.06
2023-05-19T12:18:47.902Z,100789.44
2023-05-19T12:21:15.572Z,100794.69
2023-05-19T12:23:42.615Z,100799.56
2023-05-19T12:26:10.097Z,100794.84
2023-05-19T12:28:36.617Z,100792.00
2023-05-19T12:31:03.313Z,100794.81
2023-05-19T12:33:33.600Z,100793.06
2023-05-19T12:36:02.168Z,100794.88
2023-05-19T12:38:28.785Z,100794.09
2023-05-19T12:40:59.225Z,100781.94
2023-05-19T12:43:25.734Z,100792.69
2023-05-19T12:45:52.445Z,100787.53
2023-05-19T12:48:22.594Z,100787.53
2023-05-19T12:50:52.593Z,100787.38
2023-05-19T12:53:19.242Z,100790.50
2023-05-19T12:55:46.068Z,100790.63
2023-05-19T12:58:15.621Z,100787.97
2023-05-19T13:00:44.816Z,100796.19
2023-05-19T13:03:17.436Z,100785.94
2023-05-19T13:05:50.735Z,100792.03
2023-05-19T13:08:20.103Z,100786.59
2023-05-19T13:10:47.622Z,100774.41
2023-05-19T13:13:14.860Z,100775.72
2023-05-19T13:15:48.429Z,100777.41
2023-05-19T13:18:15.127Z,100781.94
2023-05-19T13:20:44.349Z,100785.53
2023-05-19T13:23:12.176Z,100781.38
2023-05-19T13:25:39.238Z,100781.41
2023-05-19T13:28:06.105Z,100776.03
2023-05-19T13:30:34.644Z,100784.56
2023-05-19T13:33:01.760Z,100787.69
2023-05-19T13:35:28.508Z,100785.91
2023-05-19T13:37:55.148Z,100780.38
2023-05-19T13:40:22.987Z,100794.19
2023-05-19T13:42:49.621Z,100795.25
2023-05-19T13:45:16.114Z,100782.22
2023-05-19T13:47:42.666Z,100776.03
2023-05-19T13:50:09.482Z,100780.47
2023-05-19T13:52:36.007Z,100774.75
2023-05-19T13:55:02.618Z,100792.53
2023-05-19T13:57:29.404Z,100793.56
2023-05-19T14:00:01.802Z,100798.31
2023-05-19T14:02:39.310Z,100786.44
2023-05-19T14:05:07.449Z,100787.53
2023-05-19T14:07:35.098Z,100786.44
2023-05-19T14:10:06.621Z,100785.97
2023-05-19T14:12:43.556Z,100778.56
2023-05-19T14:15:20.409Z,100779.47
2023-05-19T14:17:49.100Z,100777.28
2023-05-19T14:20:15.707Z,100772.44
2023-05-19T14:22:42.248Z,100774.84
2023-05-19T14:25:09.034Z,100764.00
2023-05-19T14:27:35.630Z,100769.41
2023-05-19T14:30:02.111Z,100762.66
2023-05-19T14:32:30.441Z,100766.84
2023-05-19T14:34:57.380Z,100768.03
2023-05-19T14:37:26.367Z,100761.16
2023-05-19T14:39:52.915Z,100753.81
2023-05-19T14:42:19.444Z,100759.03
2023-05-19T14:44:45.994Z,100755.41
2023-05-19T14:47:12.779Z,100760.91
2023-05-19T14:49:39.582Z,100758.84
2023-05-19T14:52:07.251Z,100752.72
2023-05-19T14:54:34.028Z,100750.69
2023-05-19T14:57:01.490Z,100747.06
2023-05-19T14:59:29.518Z,100748.50
2023-05-19T15:01:56.054Z,100748.63
2023-05-19T15:04:22.566Z,100743.44
2023-05-19T15:06:58.159Z,100746.06
2023-05-19T15:09:32.170Z,100743.78
2023-05-19T15:12:00.983Z,100743.78
2023-05-19T15:14:27.986Z,100748.28
2023-05-19T15:16:56.671Z,100736.44
2023-05-19T15:19:23.361Z,100743.19
2023-05-19T15:21:50.596Z,100748.75
2023-05-19T15:24:17.280Z,100747.28
2023-05-19T15:26:44.445Z,100739.69
2023-05-19T15:29:11.142Z,100733.94
2023-05-19T15:31:38.424Z,100744.16
2023-05-19T15:34:05.410Z,100733.66
2023-05-19T15:36:32.062Z,100733.72
2023-05-19T15:38:58.636Z,100736.81
2023-05-19T15:41:25.583Z,100734.03
2023-05-19T15:43:53.519Z,100733.31
2023-05-19T15:46:20.199Z,100736.09
2023-05-19T15:48:46.929Z,100743.22
2023-05-19T15:51:13.897Z,100734.63
2023-05-19T15:53:40.535Z,100732.69
2023-05-19T15:56:07.156Z,100740.09
2023-05-19T15:58:33.760Z,100736.78
2023-05-19T16:01:00.940Z,100726.53
2023-05-19T16:03:27.543Z,100730.00
2023-05-19T16:05:54.378Z,100722.75
2023-05-19T16:08:21.203Z,100722.06
2023-05-19T16:10:47.910Z,100715.94
2023-05-19T16:13:14.977Z,100712.53
2023-05-19T16:15:41.849Z,100716.69
2023-05-19T16:18:08.423Z,100717.53
2023-05-19T16:20:35.273Z,100709.81
2023-05-19T16:23:03.265Z,100709.91
2023-05-19T16:25:30.066Z,100706.06
2023-05-19T16:27:56.879Z,100702.19
2023-05-19T16:30:24.540Z,100701.00
2023-05-19T16:32:53.194Z,100694.88
2023-05-19T16:35:23.205Z,100697.94
2023-05-19T16:37:49.790Z,100687.78
2023-05-19T16:40:16.413Z,100688.16
2023-05-19T16:42:42.898Z,100684.00
2023-05-19T16:45:09.854Z,100690.91
2023-05-19T16:47:36.748Z,100683.34
2023-05-19T16:50:03.950Z,100680.94
2023-05-19T16:52:30.662Z,100680.66
2023-05-19T16:54:57.151Z,100671.34
2023-05-19T16:57:26.483Z,100678.41
2023-05-19T16:59:53.553Z,100664.53
2023-05-19T17:02:22.496Z,100669.50
2023-05-19T17:04:49.054Z,100670.63
2023-05-19T17:07:15.951Z,100661.19
2023-05-19T17:09:43.635Z,100657.16
2023-05-19T17:12:10.966Z,100662.78
2023-05-19T17:14:37.554Z,100664.47
2023-05-19T17:17:04.445Z,100658.88
2023-05-19T17:19:31.435Z,100654.31
2023-05-19T17:21:57.936Z,100655.47
2023-05-19T17:24:24.697Z,100659.78
2023-05-19T17:26:51.440Z,100659.47
2023-05-19T17:29:18.145Z,100663.94
2023-05-19T17:31:44.796Z,100654.22
2023-05-19T17:34:11.430Z,100672.88
2023-05-19T17:36:38.007Z,100668.72
2023-05-19T17:39:04.727Z,100669.50
2023-05-19T17:41:31.728Z,100669.44
2023-05-19T17:43:58.730Z,100669.75
2023-05-19T17:46:25.686Z,100670.34
2023-05-19T17:48:52.434Z,100668.69
2023-05-19T17:51:19.223Z,100672.59
2023-05-19T17:53:46.263Z,100667.75
2023-05-19T17:56:13.002Z,100670.06
2023-05-19T17:58:41.371Z,100666.41
2023-05-19T18:01:08.525Z,100670.66
2023-05-19T18:03:35.743Z,100671.78
2023-05-19T18:06:02.866Z,100665.16
2023-05-19T18:08:31.189Z,100671.44
2023-05-19T18:10:58.148Z,100673.66
2023-05-19T18:13:26.136Z,100666.63
2023-05-19T18:15:52.793Z,100668.91
2023-05-19T18:18:19.666Z,100665.03
2023-05-19T18:20:46.363Z,100670.13
2023-05-19T18:23:12.972Z,100671.09
2023-05-19T18:25:39.441Z,100675.63
2023-05-19T18:28:06.277Z,100668.56
2023-05-19T18:30:32.859Z,100665.69
2023-05-19T18:33:03.463Z,100661.66
2023-05-19T18:35:30.222Z,100663.47
2023-05-19T18:37:57.434Z,100662.00
2023-05-19T18:40:24.651Z,100665.91
2023-05-19T18:42:51.119Z,100661.19
2023-05-19T18:45:18.121Z,100660.31
2023-05-19T18:47:44.964Z,100662.13
2023-05-19T18:50:11.840Z,100660.53
2023-05-19T18:52:38.468Z,100661.94
2023-05-19T18:55:05.604Z,100658.53
2023-05-19T18:57:32.333Z,100663.41
2023-05-19T18:59:58.784Z,100656.41
2023-05-19T19:02:25.297Z,100658.09
2023-05-19T19:04:54.239Z,100660.22
2023-05-19T19:07:20.885Z,100666.44
2023-05-19T19:09:47.429Z,100671.84
2023-05-19T19:12:14.236Z,100676.69
2023-05-19T19:14:40.868Z,100678.09
2023-05-19T19:17:07.586Z,100675.25
2023-05-19T19:19:34.105Z,100670.78
2023-05-19T19:22:01.022Z,100667.78
2023-05-19T19:24:28.548Z,100671.84
2023-05-19T19:26:55.211Z,100673.56
2023-05-19T19:29:22.220Z,100680.13
2023-05-19T19:31:49.175Z,100678.34
2023-05-19T19:34:15.902Z,100681.09
2023-05-19T19:36:42.806Z,100690.78
2023-05-19T19:39:09.512Z,100683.06
2023-05-19T19:41:36.734Z,100685.69
2023-05-19T19:44:03.497Z,100686.94
2023-05-19T19:46:30.280Z,100684.69
2023-05-19T19:49:00.145Z,100684.66
2023-05-19T19:51:27.550Z,100686.09
2023-05-19T19:53:54.347Z,100700.94
2023-05-19T19:56:23.505Z,100693.69
2023-05-19T19:58:51.076Z,100703.78
2023-05-19T20:01:20.464Z,100699.72
2023-05-19T20:03:47.951Z,100698.63
2023-05-19T20:06:14.867Z,100700.13
2023-05-19T20:08:41.456Z,100704.47
2023-05-19T20:11:08.116Z,100700.13
2023-05-19T20:13:34.868Z,100705.75
2023-05-19T20:16:01.528Z,100695.44
2023-05-19T20:18:29.829Z,100702.28
2023-05-19T20:20:56.799Z,100699.09
2023-05-19T20:23:23.416Z,100703.22
2023-05-19T20:26:03.028Z,100698.25
2023-05-19T20:28:36.695Z,100698.31
2023-05-19T20:31:03.487Z,100693.72
2023-05-19T20:33:30.099Z,100699.75
2023-05-19T20:35:56.888Z,100694.75
2023-05-19T20:38:23.564Z,100692.78
2023-05-19T20:40:50.063Z,100692.13
2023-05-19T20:43:16.783Z,100696.56
2023-05-19T20:45:44.072Z,100689.94
2023-05-19T20:48:11.222Z,100692.25
2023-05-19T20:50:39.494Z,100695.13
2023-05-19T20:53:07.246Z,100700.38
2023-05-19T20:55:36.034Z,100691.25
2023-05-19T20:58:02.818Z,100698.00
2023-05-19T21:00:30.536Z,100696.28
2023-05-19T21:02:57.861Z,100698.91
2023-05-19T21:05:24.758Z,100687.63
2023-05-19T21:07:51.554Z,100684.22
2023-05-19T21:10:18.209Z,100681.78
2023-05-19T21:12:44.804Z,100686.03
2023-05-19T21:15:11.735Z,100690.72
2023-05-19T21:17:38.318Z,100690.16
2023-05-19T21:20:05.735Z,100690.94
2023-05-19T21:22:32.296Z,100686.78
2023-05-19T21:24:58.878Z,100690.53
2023-05-19T21:27:25.462Z,100689.94
2023-05-19T21:29:53.893Z,100687.38
2023-05-19T21:32:22.111Z,100692.72
2023-05-19T21:34:48.771Z,100690.75
2023-05-19T21:37:17.134Z,100688.75
2023-05-19T21:39:44.004Z,100686.72
2023-05-19T21:42:10.544Z,100691.53
2023-05-19T21:44:37.274Z,100694.44
2023-05-19T21:47:03.898Z,100690.47
2023-05-19T21:49:31.128Z,100691.09
2023-05-19T21:51:57.792Z,100688.59
2023-05-19T21:54:24.411Z,100697.94
2023-05-19T21:56:50.960Z,100688.94
2023-05-19T21:59:17.521Z,100694.88
2023-05-19T22:01:44.196Z,100691.09
2023-05-19T22:04:11.288Z,100692.91
2023-05-19T22:06:37.842Z,100688.34
2023-05-19T22:09:04.474Z,100699.72
2023-05-19T22:11:30.992Z,100696.88
2023-05-19T22:13:57.748Z,100690.25
2023-05-19T22:16:24.277Z,100693.34
2023-05-19T22:18:50.843Z,100691.13
2023-05-19T22:21:17.366Z,100688.00
2023-05-19T22:23:44.148Z,100674.63
2023-05-19T22:26:10.808Z,100680.50
2023-05-19T22:28:37.391Z,100681.91
2023-05-19T22:31:04.149Z,100691.34
2023-05-19T22:33:31.005Z,100686.69
2023-05-19T22:35:57.785Z,100686.31
2023-05-19T22:38:24.350Z,100687.09
2023-05-19T22:40:51.028Z,100683.75
2023-05-19T22:43:17.507Z,100681.44
2023-05-19T22:45:44.544Z,100679.81
2023-05-19T22:48:11.446Z,100674.09
2023-05-19T22:50:38.153Z,100673.72
2023-05-19T22:53:04.954Z,100678.22
2023-05-19T22:55:32.138Z,100672.25
2023-05-19T22:57:58.902Z,100670.06
2023-05-19T23:00:25.561Z,100677.75
2023-05-19T23:02:52.220Z,100669.00
2023-05-19T23:05:18.859Z,100670.28
2023-05-19T23:07:45.678Z,100668.44
2023-05-19T23:10:12.208Z,100673.53
2023-05-19T23:12:40.148Z,100669.19
2023-05-19T23:15:07.965Z,100671.06
2023-05-19T23:17:34.482Z,100669.28
2023-05-19T23:20:01.040Z,100672.19
2023-05-19T23:22:27.731Z,100675.22
2023-05-19T23:24:54.202Z,100663.50
2023-05-19T23:27:20.803Z,100667.56
2023-05-19T23:29:53.482Z,100661.16
2023-05-19T23:32:20.367Z,100656.28
2023-05-19T23:34:47.306Z,100648.34
2023-05-19T23:37:13.788Z,100656.34
2023-05-19T23:39:40.330Z,100644.22
2023-05-19T23:42:06.886Z,100655.66
2023-05-19T23:44:33.487Z,100644.78
2023-05-19T23:47:00.236Z,100644.28
2023-05-19T23:49:26.785Z,100641.81
2023-05-19T23:51:53.325Z,100634.19
2023-05-19T23:54:19.824Z,100634.78
2023-05-19T23:56:46.315Z,100632.41
2023-05-19T23:59:13.060Z,100629.50
